createdAt,value
2022-12-18T00:01:35.767Z,5.22
2022-12-18T00:04:05.896Z,4.35
2022-12-18T00:06:41.830Z,5.20
2022-12-18T00:09:10.166Z,4.70
2022-12-18T00:11:37.285Z,5.78
2022-12-18T00:14:04.258Z,6.78
2022-12-18T00:16:34.032Z,5.95
2022-12-18T00:19:01.956Z,7.13
2022-12-18T00:21:31.242Z,7.88
2022-12-18T00:23:59.251Z,5.72
2022-12-18T00:26:29.062Z,6.05
2022-12-18T00:29:05.602Z,8.32
2022-12-18T00:31:33.747Z,8.77
2022-12-18T00:34:02.291Z,5.70
2022-12-18T00:36:35.256Z,6.72
2022-12-18T00:39:05.633Z,5.70
2022-12-18T00:41:52.062Z,6.65
2022-12-18T00:44:20.096Z,6.53
2022-12-18T00:46:49.350Z,8.90
2022-12-18T00:49:19.041Z,5.82
2022-12-18T00:51:47.217Z,7.07
2022-12-18T00:54:14.333Z,8.15
2022-12-18T00:56:49.874Z,7.05
2022-12-18T00:59:19.474Z,8.80
2022-12-18T01:01:47.125Z,8.07
2022-12-18T01:04:15.337Z,10.73
2022-12-18T01:06:46.013Z,11.15
2022-12-18T01:09:13.972Z,12.35
2022-12-18T01:11:41.091Z,10.40
2022-12-18T01:14:08.282Z,11.23
2022-12-18T01:16:37.751Z,8.82
2022-12-18T01:19:05.347Z,12.05
2022-12-18T01:21:32.480Z,9.88
2022-12-18T01:24:04.511Z,13.48
2022-12-18T01:26:31.592Z,10.98
2022-12-18T01:28:58.541Z,10.90
2022-12-18T01:31:29.294Z,14.05
2022-12-18T01:33:57.127Z,13.02
2022-12-18T01:36:30.762Z,10.30
2022-12-18T01:39:05.755Z,10.60
2022-12-18T01:41:53.244Z,9.75
2022-12-18T01:45:00.246Z,11.82
2022-12-18T01:47:38.060Z,11.68
2022-12-18T01:50:43.067Z,10.77
2022-12-18T01:53:20.195Z,11.88
2022-12-18T01:55:56.429Z,12.50
2022-12-18T01:58:42.244Z,10.60
2022-12-18T02:01:16.662Z,12.18
2022-12-18T02:03:44.923Z,15.13
2022-12-18T02:06:38.202Z,15.48
2022-12-18T02:09:29.540Z,13.30
2022-12-18T02:12:12.021Z,13.07
2022-12-18T02:15:11.029Z,16.30
2022-12-18T02:17:48.845Z,16.00
2022-12-18T02:20:19.076Z,14.65
2022-12-18T02:23:24.591Z,17.98
2022-12-18T02:26:16.383Z,16.30
2022-12-18T02:28:54.300Z,16.65
2022-12-18T02:31:26.425Z,18.00
2022-12-18T02:33:57.438Z,19.27
2022-12-18T02:36:25.369Z,21.55
2022-12-18T02:38:54.954Z,22.48
2022-12-18T02:41:23.006Z,17.20
2022-12-18T02:43:54.750Z,16.65
2022-12-18T02:46:36.125Z,21.13
2022-12-18T02:49:19.445Z,16.73
2022-12-18T02:52:00.330Z,15.43
2022-12-18T02:54:52.726Z,17.23
2022-12-18T02:57:34.307Z,19.55
2022-12-18T03:00:14.902Z,21.63
2022-12-18T03:03:10.925Z,19.60
2022-12-18T03:05:51.974Z,18.40
2022-12-18T03:08:23.927Z,19.17
2022-12-18T03:10:56.771Z,24.77
2022-12-18T03:13:34.153Z,18.48
2022-12-18T03:16:01.983Z,22.75
2022-12-18T03:18:43.400Z,21.02
2022-12-18T03:23:48.706Z,19.50
2022-12-18T03:26:19.343Z,19.45
2022-12-18T03:28:57.167Z,15.52
2022-12-18T03:31:30.182Z,20.73
2022-12-18T03:34:05.267Z,19.17
2022-12-18T03:36:40.353Z,20.58
2022-12-18T03:39:08.202Z,23.70
2022-12-18T03:41:56.546Z,23.63
2022-12-18T03:45:03.549Z,21.25
2022-12-18T03:48:15.310Z,18.13
2022-12-18T03:51:06.207Z,17.65
2022-12-18T03:53:56.702Z,21.75
2022-12-18T03:56:32.682Z,19.67
2022-12-18T03:59:04.715Z,17.67
2022-12-18T04:01:40.892Z,27.55
2022-12-18T04:04:11.085Z,18.48
2022-12-18T04:06:41.868Z,17.48
2022-12-18T04:09:11.345Z,17.08
2022-12-18T04:14:17.629Z,18.85
2022-12-18T04:16:46.321Z,17.70
2022-12-18T04:19:16.600Z,19.75
2022-12-18T04:21:45.114Z,17.25
2022-12-18T04:24:14.437Z,21.27
2022-12-18T04:26:48.648Z,23.30
2022-12-18T04:29:23.475Z,20.73
2022-12-18T04:31:50.316Z,17.83
2022-12-18T04:34:17.596Z,17.50
2022-12-18T04:36:50.072Z,23.73
2022-12-18T04:39:17.667Z,20.15
2022-12-18T04:41:45.444Z,25.33
2022-12-18T04:44:13.627Z,21.40
2022-12-18T04:46:40.740Z,21.30
2022-12-18T04:49:07.937Z,24.92
2022-12-18T04:51:34.976Z,28.70
2022-12-18T04:54:01.956Z,27.10
2022-12-18T04:56:28.813Z,28.35
2022-12-18T04:58:55.645Z,32.67
2022-12-18T05:01:22.519Z,30.92
2022-12-18T05:03:49.748Z,25.48
2022-12-18T05:06:16.699Z,28.38
2022-12-18T05:08:43.682Z,24.67
2022-12-18T05:11:13.809Z,25.52
2022-12-18T05:13:41.257Z,25.60
2022-12-18T05:16:09.263Z,25.83
2022-12-18T05:18:36.553Z,26.05
2022-12-18T05:21:04.340Z,25.90
2022-12-18T05:23:31.303Z,26.05
2022-12-18T05:26:03.556Z,26.38
2022-12-18T05:28:32.415Z,27.02
2022-12-18T05:31:03.257Z,24.65
2022-12-18T05:33:35.308Z,26.98
2022-12-18T05:36:04.049Z,26.50
2022-12-18T05:38:39.652Z,27.55
2022-12-18T05:41:07.715Z,25.02
2022-12-18T05:43:39.493Z,22.55
2022-12-18T05:46:08.891Z,29.45
2022-12-18T05:48:36.242Z,24.95
2022-12-18T05:51:12.261Z,30.92
2022-12-18T05:53:40.523Z,31.27
2022-12-18T05:56:14.529Z,28.17
2022-12-18T05:58:41.978Z,29.83
2022-12-18T06:01:13.625Z,28.05
2022-12-18T06:03:42.099Z,31.90
2022-12-18T06:06:24.161Z,32.33
2022-12-18T06:08:53.386Z,31.65
2022-12-18T06:11:23.172Z,31.25
2022-12-18T06:13:58.560Z,26.75
2022-12-18T06:16:26.744Z,31.23
2022-12-18T06:18:54.442Z,31.88
2022-12-18T06:21:21.707Z,27.83
2022-12-18T06:23:48.878Z,30.23
2022-12-18T06:26:16.287Z,31.08
2022-12-18T06:28:44.119Z,35.25
2022-12-18T06:31:11.333Z,29.25
2022-12-18T06:33:39.646Z,28.58
2022-12-18T06:36:09.295Z,31.10
2022-12-18T06:38:38.118Z,30.23
2022-12-18T06:41:13.816Z,33.83
2022-12-18T06:43:41.832Z,37.40
2022-12-18T06:46:10.026Z,40.17
2022-12-18T06:48:37.193Z,33.33
2022-12-18T06:51:05.919Z,52.85
2022-12-18T06:53:34.042Z,41.65
2022-12-18T06:56:10.219Z,37.08
2022-12-18T06:58:39.175Z,29.92
2022-12-18T07:01:08.502Z,31.63
2022-12-18T07:03:35.876Z,29.00
2022-12-18T07:06:06.512Z,32.30
2022-12-18T07:08:34.877Z,28.27
2022-12-18T07:11:05.311Z,31.65
2022-12-18T07:13:32.918Z,34.87
2022-12-18T07:16:24.797Z,30.63
2022-12-18T07:18:55.329Z,35.42
2022-12-18T07:21:23.458Z,32.28
2022-12-18T07:23:51.084Z,30.63
2022-12-18T07:26:21.835Z,34.13
2022-12-18T07:28:50.020Z,32.20
2022-12-18T07:31:21.856Z,33.35
2022-12-18T07:33:50.074Z,34.25
2022-12-18T07:36:18.015Z,31.55
2022-12-18T07:38:48.442Z,31.60
2022-12-18T07:41:16.613Z,31.77
2022-12-18T07:43:44.915Z,28.65
2022-12-18T07:46:16.827Z,27.67
2022-12-18T07:48:50.027Z,27.67
2022-12-18T07:51:19.127Z,31.85
2022-12-18T07:54:11.118Z,27.63
2022-12-18T07:56:38.461Z,27.67
2022-12-18T07:59:06.323Z,24.75
2022-12-18T08:01:35.725Z,26.60
2022-12-18T08:04:03.608Z,27.80
2022-12-18T08:06:31.441Z,26.85
2022-12-18T08:08:58.921Z,29.35
2022-12-18T08:11:29.091Z,27.52
2022-12-18T08:13:57.096Z,28.50
2022-12-18T08:16:24.380Z,32.00
2022-12-18T08:18:53.429Z,29.80
2022-12-18T08:21:25.651Z,37.47
2022-12-18T08:23:54.799Z,28.60
2022-12-18T08:26:22.701Z,30.75
2022-12-18T08:28:55.056Z,30.00
2022-12-18T08:31:23.475Z,29.40
2022-12-18T08:33:53.384Z,27.23
2022-12-18T08:36:22.081Z,31.50
2022-12-18T08:38:52.023Z,32.08
2022-12-18T08:41:19.648Z,31.30
2022-12-18T08:44:08.832Z,32.25
2022-12-18T08:46:43.964Z,32.63
2022-12-18T08:49:12.643Z,28.42
2022-12-18T08:51:39.976Z,32.60
2022-12-18T08:54:08.118Z,38.78
2022-12-18T08:56:35.950Z,29.42
2022-12-18T08:59:04.036Z,31.05
2022-12-18T09:01:32.223Z,36.30
2022-12-18T09:04:00.665Z,36.63
2022-12-18T09:06:28.792Z,55.50
2022-12-18T09:08:55.997Z,70.65
2022-12-18T09:11:30.231Z,31.80
2022-12-18T09:13:59.044Z,26.38
2022-12-18T09:16:31.740Z,28.48
2022-12-18T09:19:04.546Z,29.27
2022-12-18T09:21:36.052Z,29.13
2022-12-18T09:24:05.151Z,32.30
2022-12-18T09:26:36.765Z,61.30
2022-12-18T09:29:04.099Z,35.08
2022-12-18T09:31:35.175Z,47.42
2022-12-18T09:34:05.275Z,32.08
2022-12-18T09:36:32.927Z,35.88
2022-12-18T09:39:04.947Z,31.20
2022-12-18T09:41:46.852Z,32.55
2022-12-18T09:44:18.081Z,36.50
2022-12-18T09:46:51.919Z,32.40
2022-12-18T09:49:24.429Z,37.72
2022-12-18T09:52:12.993Z,31.00
2022-12-18T09:54:42.322Z,32.20
2022-12-18T09:57:23.298Z,33.92
2022-12-18T10:00:21.015Z,35.58
2022-12-18T10:02:50.711Z,35.25
2022-12-18T10:05:59.860Z,32.28
2022-12-18T10:08:48.061Z,34.88
2022-12-18T10:11:30.078Z,29.85
2022-12-18T10:14:28.122Z,30.75
2022-12-18T10:17:33.484Z,41.78
2022-12-18T10:20:06.367Z,39.28
2022-12-18T10:22:42.498Z,32.33
2022-12-18T10:25:28.341Z,31.23
2022-12-18T10:28:08.901Z,31.38
2022-12-18T10:30:36.764Z,28.42
2022-12-18T10:33:04.922Z,37.63
2022-12-18T10:35:32.253Z,29.55
2022-12-18T10:38:31.700Z,31.00
2022-12-18T10:41:01.082Z,28.98
2022-12-18T10:43:36.649Z,33.92
2022-12-18T10:46:09.934Z,30.25
2022-12-18T10:48:49.617Z,30.98
2022-12-18T10:51:36.838Z,33.80
2022-12-18T10:54:27.195Z,34.33
2022-12-18T10:57:26.149Z,31.70
2022-12-18T11:00:09.210Z,30.65
2022-12-18T11:02:39.570Z,26.50
2022-12-18T11:05:27.437Z,33.10
2022-12-18T11:07:55.722Z,31.70
2022-12-18T11:10:35.880Z,24.25
2022-12-18T11:13:22.306Z,29.55
2022-12-18T11:15:51.058Z,35.08
2022-12-18T11:18:32.081Z,30.02
2022-12-18T11:21:08.147Z,24.30
2022-12-18T11:23:52.637Z,31.65
2022-12-18T11:26:21.522Z,32.17
2022-12-18T11:28:52.786Z,41.50
2022-12-18T11:31:44.588Z,32.47
2022-12-18T11:34:33.134Z,30.35
2022-12-18T11:37:04.366Z,28.42
2022-12-18T11:42:45.280Z,38.50
2022-12-18T11:45:17.072Z,27.20
2022-12-18T11:51:00.449Z,40.33
2022-12-18T11:54:21.702Z,27.00
2022-12-18T11:57:21.066Z,28.70
2022-12-18T12:00:22.293Z,29.17
2022-12-18T12:05:38.356Z,24.58
2022-12-18T12:08:50.623Z,105.32
2022-12-18T12:11:32.634Z,68.13
2022-12-18T12:14:28.548Z,28.67
2022-12-18T12:17:24.482Z,76.07
2022-12-18T12:20:03.204Z,37.80
2022-12-18T12:23:06.000Z,32.92
2022-12-18T12:25:33.179Z,26.35
2022-12-18T12:28:37.609Z,40.80
2022-12-18T12:31:08.446Z,30.27
2022-12-18T12:33:44.551Z,30.02
2022-12-18T12:36:32.858Z,37.97
2022-12-18T12:39:07.055Z,30.92
2022-12-18T12:41:58.836Z,29.25
2022-12-18T12:44:31.078Z,29.13
2022-12-18T12:47:04.488Z,36.85
2022-12-18T12:49:39.006Z,37.08
2022-12-18T12:52:18.802Z,35.25
2022-12-18T12:54:49.984Z,32.40
2022-12-18T12:57:32.844Z,42.92
2022-12-18T13:00:13.327Z,31.67
2022-12-18T13:02:52.980Z,37.60
2022-12-18T13:05:38.123Z,31.20
2022-12-18T13:08:13.635Z,29.52
2022-12-18T13:11:48.584Z,43.17
2022-12-18T13:14:27.844Z,38.10
2022-12-18T13:17:22.091Z,41.08
2022-12-18T13:20:10.755Z,38.22
2022-12-18T13:22:42.201Z,34.60
2022-12-18T13:25:28.749Z,37.30
2022-12-18T13:28:18.390Z,45.28
2022-12-18T13:30:57.035Z,35.75
2022-12-18T13:33:28.742Z,37.58
2022-12-18T13:36:14.690Z,40.88
2022-12-18T13:38:44.875Z,50.67
2022-12-18T13:41:19.115Z,45.03
2022-12-18T13:44:14.181Z,44.53
2022-12-18T13:46:47.105Z,49.00
2022-12-18T13:49:14.258Z,65.97
2022-12-18T13:51:51.536Z,34.95
2022-12-18T13:54:43.709Z,50.15
2022-12-18T13:57:32.070Z,53.70
2022-12-18T14:00:00.125Z,37.30
2022-12-18T14:02:30.403Z,43.35
2022-12-18T14:04:58.174Z,102.30
2022-12-18T14:07:31.433Z,52.63
2022-12-18T14:10:42.231Z,57.45
2022-12-18T14:13:09.567Z,116.75
2022-12-18T14:15:44.887Z,78.40
2022-12-18T14:18:45.378Z,84.30
2022-12-18T14:21:23.024Z,81.45
2022-12-18T14:24:04.433Z,122.05
2022-12-18T14:26:34.313Z,146.38
2022-12-18T14:29:18.504Z,68.68
2022-12-18T14:31:46.553Z,62.55
2022-12-18T14:34:17.525Z,71.38
2022-12-18T14:36:54.118Z,41.25
2022-12-18T14:39:21.566Z,51.30
2022-12-18T14:41:52.866Z,52.67
2022-12-18T14:44:20.121Z,55.90
2022-12-18T14:46:48.392Z,50.80
2022-12-18T14:49:34.166Z,55.10
2022-12-18T14:52:27.285Z,57.58
2022-12-18T14:54:54.541Z,51.75
2022-12-18T14:57:30.985Z,59.00
2022-12-18T15:00:16.471Z,73.50
2022-12-18T15:02:50.636Z,87.63
2022-12-18T15:05:28.669Z,54.40
2022-12-18T15:07:58.084Z,73.25
2022-12-18T15:10:33.874Z,101.05
2022-12-18T15:13:01.653Z,62.00
2022-12-18T15:15:35.366Z,64.93
2022-12-18T15:18:05.729Z,104.93
2022-12-18T15:20:34.067Z,67.47
2022-12-18T15:23:01.465Z,63.63
2022-12-18T15:25:38.865Z,61.95
2022-12-18T15:28:21.032Z,50.78
2022-12-18T15:31:05.999Z,60.42
2022-12-18T15:33:39.808Z,52.80
2022-12-18T15:36:21.421Z,56.83
2022-12-18T15:38:56.159Z,49.13
2022-12-18T15:41:37.715Z,50.90
2022-12-18T15:44:29.488Z,45.90
2022-12-18T15:46:56.498Z,64.88
2022-12-18T15:49:23.752Z,51.72
2022-12-18T15:51:57.433Z,53.85
2022-12-18T15:54:43.764Z,42.90
2022-12-18T15:57:24.513Z,111.57
2022-12-18T15:59:53.916Z,484.63
2022-12-18T16:02:23.938Z,92.38
2022-12-18T16:04:53.295Z,76.83
2022-12-18T16:07:25.022Z,65.63
2022-12-18T16:09:57.470Z,55.28
2022-12-18T16:12:27.057Z,57.78
2022-12-18T16:14:54.977Z,62.80
2022-12-18T16:17:23.154Z,60.38
2022-12-18T16:19:50.650Z,55.45
2022-12-18T16:22:29.814Z,56.97
2022-12-18T16:25:41.300Z,78.03
2022-12-18T16:28:08.427Z,64.00
2022-12-18T16:30:38.630Z,65.65
2022-12-18T16:33:07.539Z,83.47
2022-12-18T16:35:38.221Z,73.55
2022-12-18T16:38:06.057Z,72.07
2022-12-18T16:40:34.157Z,93.13
2022-12-18T16:43:01.129Z,72.70
2022-12-18T16:45:34.122Z,60.78
2022-12-18T16:48:01.276Z,62.03
2022-12-18T16:50:28.298Z,55.10
2022-12-18T16:52:55.208Z,60.10
2022-12-18T16:55:22.187Z,53.20
2022-12-18T16:57:49.304Z,51.85
2022-12-18T17:00:16.755Z,56.05
2022-12-18T17:02:43.808Z,58.60
2022-12-18T17:05:11.355Z,50.17
2022-12-18T17:07:38.938Z,65.82
2022-12-18T17:10:06.356Z,59.88
2022-12-18T17:12:33.516Z,66.72
2022-12-18T17:15:00.673Z,68.13
2022-12-18T17:17:27.869Z,69.70
2022-12-18T17:19:54.998Z,77.88
2022-12-18T17:22:23.560Z,79.90
2022-12-18T17:24:50.672Z,65.75
2022-12-18T17:27:17.851Z,70.57
2022-12-18T17:29:47.802Z,60.20
2022-12-18T17:32:18.438Z,71.18
2022-12-18T17:34:46.110Z,72.30
2022-12-18T17:37:13.696Z,75.00
2022-12-18T17:39:40.868Z,67.68
2022-12-18T17:42:10.656Z,71.03
2022-12-18T17:44:42.655Z,65.95
2022-12-18T17:47:12.172Z,67.63
2022-12-18T17:49:39.351Z,70.15
2022-12-18T17:52:06.365Z,72.72
2022-12-18T17:54:33.497Z,60.72
2022-12-18T17:57:00.483Z,66.00
2022-12-18T17:59:27.580Z,64.60
2022-12-18T18:01:54.786Z,67.97
2022-12-18T18:04:23.591Z,67.68
2022-12-18T18:06:51.236Z,68.55
2022-12-18T18:09:18.230Z,66.88
2022-12-18T18:12:09.325Z,64.28
2022-12-18T18:14:49.946Z,62.60
2022-12-18T18:17:18.666Z,70.95
2022-12-18T18:19:45.942Z,62.53
2022-12-18T18:22:16.821Z,63.45
2022-12-18T18:24:45.504Z,74.15
2022-12-18T18:27:13.322Z,66.28
2022-12-18T18:29:40.740Z,61.55
2022-12-18T18:32:07.992Z,65.13
2022-12-18T18:34:35.194Z,58.58
2022-12-18T18:37:02.542Z,62.08
2022-12-18T18:39:29.812Z,73.93
2022-12-18T18:41:57.351Z,67.95
2022-12-18T18:44:25.747Z,73.38
2022-12-18T18:46:57.876Z,72.10
2022-12-18T18:49:27.668Z,71.13
2022-12-18T18:51:56.388Z,97.97
2022-12-18T18:54:24.303Z,119.32
2022-12-18T18:59:38.833Z,84.93
2022-12-18T19:02:06.062Z,90.85
2022-12-18T19:04:34.558Z,76.32
2022-12-18T19:07:02.035Z,104.88
2022-12-18T19:09:29.730Z,77.07
2022-12-18T19:12:15.960Z,77.55
2022-12-18T19:14:44.352Z,99.47
2022-12-18T19:17:11.677Z,78.72
2022-12-18T19:19:38.956Z,82.45
2022-12-18T19:22:06.425Z,103.00
2022-12-18T19:24:33.644Z,86.32
2022-12-18T19:27:00.760Z,76.70
2022-12-18T19:29:27.930Z,76.95
2022-12-18T19:31:54.963Z,82.03
2022-12-18T19:34:22.512Z,70.00
2022-12-18T19:36:52.111Z,68.30
2022-12-18T19:39:23.723Z,69.43
2022-12-18T19:41:52.689Z,68.93
2022-12-18T19:44:19.772Z,62.28
2022-12-18T19:46:51.718Z,58.92
2022-12-18T19:49:18.878Z,57.35
2022-12-18T19:51:46.244Z,53.05
2022-12-18T19:54:16.981Z,55.58
2022-12-18T19:56:45.677Z,55.53
2022-12-18T19:59:13.572Z,50.58
2022-12-18T20:01:41.074Z,47.03
2022-12-18T20:04:08.284Z,34.00
2022-12-18T20:06:47.724Z,36.97
2022-12-18T20:09:21.804Z,30.50
2022-12-18T20:11:53.506Z,35.53
2022-12-18T20:14:22.929Z,26.08
2022-12-18T20:16:53.009Z,25.70
2022-12-18T20:19:20.890Z,24.65
2022-12-18T20:21:48.485Z,28.15
2022-12-18T20:24:15.587Z,27.65
2022-12-18T20:26:42.808Z,34.05
2022-12-18T20:29:22.118Z,27.30
2022-12-18T20:32:00.285Z,19.60
2022-12-18T20:34:30.226Z,23.40
2022-12-18T20:37:00.801Z,24.88
2022-12-18T20:39:28.493Z,30.15
2022-12-18T20:42:06.430Z,33.28
2022-12-18T20:44:36.481Z,47.67
2022-12-18T20:47:06.667Z,19.80
2022-12-18T20:49:35.985Z,20.55
2022-12-18T20:52:06.111Z,25.63
2022-12-18T20:54:32.970Z,28.00
2022-12-18T20:57:00.602Z,47.72
2022-12-18T20:59:34.356Z,21.60
2022-12-18T21:02:01.503Z,21.92
2022-12-18T21:04:28.813Z,17.80
2022-12-18T21:07:02.287Z,21.15
2022-12-18T21:09:37.121Z,17.08
2022-12-18T21:12:26.011Z,18.20
2022-12-18T21:14:54.042Z,15.82
2022-12-18T21:17:21.201Z,14.85
2022-12-18T21:19:48.231Z,16.48
2022-12-18T21:22:16.435Z,22.10
2022-12-18T21:24:43.654Z,15.60
2022-12-18T21:27:10.634Z,24.80
2022-12-18T21:29:41.671Z,24.27
2022-12-18T21:32:10.175Z,18.02
2022-12-18T21:34:37.894Z,16.77
2022-12-18T21:37:04.916Z,18.95
2022-12-18T21:39:32.893Z,22.58
2022-12-18T21:42:19.283Z,23.10
2022-12-18T21:44:49.163Z,17.52
2022-12-18T21:47:21.926Z,13.50
2022-12-18T21:49:53.735Z,15.50
2022-12-18T21:52:30.745Z,20.05
2022-12-18T21:55:07.881Z,22.73
2022-12-18T21:57:37.349Z,13.75
2022-12-18T22:00:06.314Z,14.45
2022-12-18T22:02:48.169Z,14.18
2022-12-18T22:05:20.399Z,15.05
2022-12-18T22:10:15.821Z,16.38
2022-12-18T22:12:44.517Z,19.40
2022-12-18T22:15:21.127Z,19.48
2022-12-18T22:17:50.187Z,15.98
2022-12-18T22:20:20.170Z,14.30
2022-12-18T22:22:52.786Z,17.08
2022-12-18T22:25:19.934Z,17.33
2022-12-18T22:28:07.239Z,14.57
2022-12-18T22:30:37.445Z,17.05
2022-12-18T22:33:04.576Z,18.23
2022-12-18T22:35:31.551Z,17.58
2022-12-18T22:37:59.922Z,20.83
2022-12-18T22:40:28.034Z,18.42
2022-12-18T22:42:57.366Z,18.25
2022-12-18T22:45:26.243Z,17.52
2022-12-18T22:47:53.728Z,17.10
2022-12-18T22:50:21.225Z,16.42
2022-12-18T22:52:48.277Z,18.10
2022-12-18T22:55:15.578Z,20.55
2022-12-18T22:57:46.524Z,14.57
2022-12-18T23:00:16.532Z,13.75
2022-12-18T23:02:45.065Z,12.18
2022-12-18T23:05:12.151Z,17.95
2022-12-18T23:07:39.147Z,14.75
2022-12-18T23:10:06.701Z,14.52
2022-12-18T23:12:33.735Z,12.77
2022-12-18T23:15:03.937Z,16.50
2022-12-18T23:17:31.069Z,15.82
2022-12-18T23:19:58.011Z,15.55
2022-12-18T23:22:25.076Z,15.70
2022-12-18T23:24:51.928Z,15.80
2022-12-18T23:27:20.069Z,14.38
2022-12-18T23:29:47.455Z,20.33
2022-12-18T23:32:15.898Z,17.10
2022-12-18T23:34:46.566Z,22.10
2022-12-18T23:37:24.969Z,21.42
2022-12-18T23:40:00.745Z,17.50
2022-12-18T23:42:27.853Z,16.48
2022-12-18T23:44:55.205Z,21.63
2022-12-18T23:47:24.122Z,17.02
2022-12-18T23:49:51.154Z,17.42
2022-12-18T23:52:18.390Z,17.77
2022-12-18T23:54:45.967Z,17.42
2022-12-18T23:57:13.146Z,16.33
2022-12-18T23:59:40.584Z,18.67
